Time;durP1;ratioP1;P1;durP2;ratioP2;P2;SDS_P1;SDS_P2;PMS_P1;PMS_P2;Temp;Humidity;BMP_temperature;BMP_pressure;BME280_temperature;BME280_humidity;BME280_pressure;Samples;Min_cycle;Max_cycle;Signal;HPM_P1;HPM_P2
2022/08/18 00:00:01;;;;;;;0.00;0.00;;;19.00;41.30;;;;;;5112144;28;20054;-74
2022/08/18 00:02:29;;;;;;;0.28;0.25;;;18.90;40.90;;;;;;5109192;28;20513;-74
2022/08/18 00:04:56;;;;;;;0.00;0.00;;;19.00;40.60;;;;;;5112494;28;20081;-74
2022/08/18 00:07:25;;;;;;;0.85;0.85;;;18.90;40.70;;;;;;5114326;28;20418;-74
2022/08/18 00:09:52;;;;;;;0.00;0.00;;;18.80;40.70;;;;;;5112939;28;20026;-74
2022/08/18 00:12:23;;;;;;;0.10;0.10;;;18.80;40.60;;;;;;5113843;28;20028;-74
2022/08/18 00:14:50;;;;;;;0.00;0.00;;;18.80;40.40;;;;;;5115003;28;20063;-74
2022/08/18 00:17:17;;;;;;;0.08;0.08;;;18.80;40.40;;;;;;5115178;28;20034;-74
2022/08/18 00:19:44;;;;;;;0.00;0.00;;;18.80;40.60;;;;;;5114570;28;20068;-74
2022/08/18 00:22:13;;;;;;;0.00;0.00;;;18.70;40.90;;;;;;5110918;28;20027;-75
2022/08/18 00:24:39;;;;;;;0.00;0.00;;;18.70;40.90;;;;;;5112591;28;20032;-74
2022/08/18 00:27:06;;;;;;;0.00;0.00;;;18.80;41.00;;;;;;5112180;28;20068;-74
2022/08/18 00:29:32;;;;;;;0.00;0.00;;;18.70;41.10;;;;;;5096229;28;20169;-74
2022/08/18 00:31:58;;;;;;;0.00;0.00;;;18.70;41.10;;;;;;5115159;28;20041;-74
2022/08/18 00:34:24;;;;;;;0.00;0.00;;;18.80;41.30;;;;;;5116144;28;20024;-74
2022/08/18 00:36:51;;;;;;;0.00;0.00;;;18.80;41.40;;;;;;5115617;28;20092;-74
2022/08/18 00:39:17;;;;;;;0.00;0.00;;;18.90;41.30;;;;;;5116169;28;20024;-74
2022/08/18 00:41:43;;;;;;;0.00;0.00;;;18.90;41.50;;;;;;5116381;28;20023;-74
2022/08/18 00:44:09;;;;;;;0.00;0.00;;;18.90;41.30;;;;;;5115947;28;20019;-74
2022/08/18 00:46:36;;;;;;;0.00;0.00;;;19.00;41.40;;;;;;5109898;28;20036;-74
2022/08/18 00:49:03;;;;;;;0.00;0.00;;;19.10;41.30;;;;;;5108906;28;20065;-74
2022/08/18 00:51:50;;;;;;;0.00;0.00;;;19.20;41.30;;;;;;5113648;28;20023;-74
2022/08/18 00:54:36;;;;;;;0.00;0.00;;;19.40;41.00;;;;;;5113048;28;20038;-75
2022/08/18 00:57:05;;;;;;;0.00;0.00;;;19.50;41.40;;;;;;5111870;27;20047;-74
2022/08/18 00:59:41;;;;;;;0.00;0.00;;;19.60;41.20;;;;;;5111312;28;20016;-74
2022/08/18 01:02:15;;;;;;;0.00;0.00;;;19.70;40.90;;;;;;5108588;28;20031;-74
2022/08/18 01:04:52;;;;;;;0.00;0.00;;;19.90;41.00;;;;;;5112688;28;20596;-75
2022/08/18 01:07:42;;;;;;;0.00;0.00;;;19.90;41.40;;;;;;5113042;28;20032;-74
2022/08/18 01:10:09;;;;;;;0.08;0.08;;;20.10;42.00;;;;;;5112549;28;20050;-73
2022/08/18 01:12:36;;;;;;;0.52;0.52;;;20.60;40.90;;;;;;5113600;28;20096;-74
2022/08/18 01:15:02;;;;;;;1.02;0.50;;;20.80;40.70;;;;;;5113978;28;20019;-73
2022/08/18 01:23:15;;;;;;;0.00;0.00;;;20.50;41.10;;;;;;5111874;28;20405;-74
2022/08/18 01:26:05;;;;;;;0.00;0.00;;;20.70;41.10;;;;;;5114199;28;20015;-74
2022/08/18 01:28:39;;;;;;;0.15;0.15;;;20.80;40.50;;;;;;5110332;28;20069;-74
2022/08/18 01:31:08;;;;;;;0.00;0.00;;;21.10;39.80;;;;;;5114238;28;20030;-74
2022/08/18 01:33:40;;;;;;;0.00;0.00;;;21.40;38.80;;;;;;5112075;28;20464;-74
2022/08/18 01:36:15;;;;;;;0.00;0.00;;;21.60;39.60;;;;;;5113245;28;20106;-74
2022/08/18 01:38:46;;;;;;;0.00;0.00;;;21.60;39.40;;;;;;5114720;28;20310;-74
2022/08/18 01:41:13;;;;;;;0.15;0.15;;;21.70;40.30;;;;;;5094272;28;20055;-74
2022/08/18 01:43:40;;;;;;;0.00;0.00;;;21.40;40.20;;;;;;5093414;28;20019;-74
2022/08/18 01:46:06;;;;;;;1.15;0.63;;;21.40;40.60;;;;;;5094977;28;20023;-74
2022/08/18 01:48:35;;;;;;;0.00;0.00;;;21.80;39.50;;;;;;5109927;28;20028;-74
2022/08/18 01:51:05;;;;;;;0.43;0.43;;;21.80;40.60;;;;;;5113623;28;20069;-74
2022/08/18 01:53:31;;;;;;;5.47;0.52;;;22.20;39.90;;;;;;5103567;28;20031;-74
2022/08/18 01:55:58;;;;;;;0.70;0.60;;;22.60;38.80;;;;;;5114286;28;20045;-74
2022/08/18 01:58:26;;;;;;;0.38;0.38;;;22.30;39.00;;;;;;5107339;28;20076;-73
2022/08/18 02:00:57;;;;;;;0.00;0.00;;;22.90;38.90;;;;;;5112731;28;20024;-73
2022/08/18 02:03:28;;;;;;;0.00;0.00;;;23.70;37.00;;;;;;5113935;28;20075;-73
2022/08/18 02:06:01;;;;;;;0.00;0.00;;;24.20;35.70;;;;;;5113306;28;20019;-73
2022/08/18 02:08:28;;;;;;;0.00;0.00;;;25.60;34.00;;;;;;5111881;28;20024;-73
2022/08/18 02:10:57;;;;;;;0.05;0.05;;;25.50;33.40;;;;;;5113044;28;20387;-74
2022/08/18 02:13:25;;;;;;;0.00;0.00;;;26.60;31.50;;;;;;5113829;28;20028;-73
2022/08/18 02:15:51;;;;;;;0.00;0.00;;;25.40;30.20;;;;;;5113647;28;20027;-73
2022/08/18 02:18:21;;;;;;;0.00;0.00;;;25.90;30.70;;;;;;5118394;27;20372;-75
2022/08/18 02:20:47;;;;;;;0.00;0.00;;;26.60;29.50;;;;;;5119023;27;20053;-74
2022/08/18 02:23:14;;;;;;;0.00;0.00;;;26.20;29.40;;;;;;5096021;28;20031;-74
2022/08/18 02:25:42;;;;;;;0.40;0.30;;;26.70;30.00;;;;;;5111722;28;20095;-74
2022/08/18 02:28:08;;;;;;;0.00;0.00;;;25.20;30.50;;;;;;5111128;28;20060;-73
2022/08/18 02:30:38;;;;;;;0.00;0.00;;;25.90;31.50;;;;;;5110194;27;20472;-76
2022/08/18 02:33:06;;;;;;;0.90;0.63;;;26.30;30.10;;;;;;5114640;28;20023;-76
2022/08/18 02:35:33;;;;;;;0.65;0.65;;;27.00;30.30;;;;;;5128273;27;20019;-76
2022/08/18 02:37:59;;;;;;;0.00;0.00;;;27.60;29.20;;;;;;5115714;27;20019;-76
2022/08/18 02:40:26;;;;;;;0.00;0.00;;;28.30;28.70;;;;;;5115942;27;20254;-77
2022/08/18 02:42:53;;;;;;;3.80;3.60;;;28.70;27.90;;;;;;5117781;27;20031;-78
2022/08/18 02:45:20;;;;;;;0.05;0.05;;;29.20;27.60;;;;;;5123433;27;20023;-76
2022/08/18 02:47:55;;;;;;;0.00;0.00;;;29.40;27.30;;;;;;5110927;27;20024;-76
2022/08/18 02:50:21;;;;;;;0.00;0.00;;;29.40;26.90;;;;;;5106356;28;20757;-76
2022/08/18 02:52:48;;;;;;;0.35;0.35;;;29.30;26.80;;;;;;5107351;28;20027;-77
2022/08/18 02:55:15;;;;;;;1.42;1.42;;;29.50;27.00;;;;;;5109450;28;20038;-77
2022/08/18 02:57:44;;;;;;;0.00;0.00;;;29.50;27.00;;;;;;5107967;28;20065;-78
2022/08/18 03:00:14;;;;;;;0.00;0.00;;;29.70;27.00;;;;;;5104528;28;20450;-75
2022/08/18 03:02:46;;;;;;;0.10;0.10;;;29.80;27.20;;;;;;5105487;28;20051;-77
2022/08/18 03:05:13;;;;;;;0.00;0.00;;;29.00;27.70;;;;;;5106048;28;20459;-78
2022/08/18 03:07:39;;;;;;;0.00;0.00;;;29.20;27.70;;;;;;5105849;28;20031;-76
2022/08/18 03:10:06;;;;;;;0.00;0.00;;;29.20;27.60;;;;;;5108268;28;20028;-75
2022/08/18 03:12:35;;;;;;;0.60;0.60;;;28.40;28.40;;;;;;5098110;28;20052;-77
2022/08/18 03:15:02;;;;;;;0.00;0.00;;;28.00;28.50;;;;;;5106375;28;20034;-76
2022/08/18 03:17:28;;;;;;;0.00;0.00;;;27.60;29.20;;;;;;5107471;28;20055;-76
2022/08/18 03:19:54;;;;;;;0.10;0.10;;;27.70;28.60;;;;;;5092434;28;20104;-76
2022/08/18 03:22:21;;;;;;;0.00;0.00;;;27.50;29.00;;;;;;5102157;28;20502;-76
2022/08/18 03:24:47;;;;;;;0.00;0.00;;;27.20;29.30;;;;;;5105548;28;20032;-76
2022/08/18 03:27:13;;;;;;;0.00;0.00;;;26.80;29.50;;;;;;5105049;28;20282;-75
2022/08/18 03:29:39;;;;;;;0.00;0.00;;;26.50;29.90;;;;;;5102787;28;20059;-77
2022/08/18 03:32:07;;;;;;;8.48;1.17;;;26.10;30.10;;;;;;5101502;28;20399;-76
2022/08/18 03:34:34;;;;;;;0.00;0.00;;;25.50;31.10;;;;;;5105604;28;20049;-77
2022/08/18 03:37:00;;;;;;;0.00;0.00;;;25.40;32.00;;;;;;5110804;28;20391;-77
2022/08/18 03:39:27;;;;;;;0.85;0.85;;;25.30;31.80;;;;;;5112148;28;20034;-76
2022/08/18 03:41:54;;;;;;;0.00;0.00;;;23.80;33.30;;;;;;5109807;28;20497;-76
2022/08/18 03:44:22;;;;;;;0.38;0.15;;;23.50;35.20;;;;;;5109982;28;20035;-75
2022/08/18 03:46:49;;;;;;;0.00;0.00;;;23.30;35.30;;;;;;5109922;28;20316;-76
2022/08/18 03:49:17;;;;;;;0.00;0.00;;;23.30;35.40;;;;;;5109732;28;20023;-76
2022/08/18 03:51:45;;;;;;;64.47;4.05;;;23.40;34.90;;;;;;5110221;28;20035;-76
2022/08/18 03:54:14;;;;;;;0.00;0.00;;;23.80;34.30;;;;;;5104483;28;20176;-76
2022/08/18 03:56:41;;;;;;;0.00;0.00;;;23.60;34.30;;;;;;5104059;28;20047;-76
2022/08/18 03:59:16;;;;;;;0.00;0.00;;;23.90;34.40;;;;;;5108946;28;20145;-76
2022/08/18 04:01:44;;;;;;;0.77;0.77;;;24.00;34.20;;;;;;5115427;27;20530;-76
2022/08/18 04:04:14;;;;;;;0.00;0.00;;;24.10;34.80;;;;;;5111801;27;20024;-76
2022/08/18 04:06:44;;;;;;;0.00;0.00;;;23.90;35.00;;;;;;5116354;27;20375;-76
2022/08/18 04:09:13;;;;;;;0.93;0.93;;;23.80;35.50;;;;;;5116596;27;20042;-75
2022/08/18 04:11:44;;;;;;;0.00;0.00;;;23.70;35.20;;;;;;5111408;27;20103;-75
2022/08/18 04:14:12;;;;;;;0.43;0.30;;;23.90;35.10;;;;;;5118215;27;20024;-76
2022/08/18 04:16:39;;;;;;;0.00;0.00;;;23.70;35.10;;;;;;5110717;27;20077;-76
2022/08/18 04:19:07;;;;;;;0.00;0.00;;;23.70;35.40;;;;;;5108733;27;20024;-76
2022/08/18 04:21:36;;;;;;;0.43;0.17;;;23.90;35.10;;;;;;5104203;27;20035;-76
2022/08/18 04:24:04;;;;;;;0.20;0.05;;;24.10;35.30;;;;;;5099261;27;20023;-77
2022/08/18 04:26:34;;;;;;;0.00;0.00;;;24.10;35.00;;;;;;5106841;27;20048;-76
2022/08/18 04:29:00;;;;;;;0.00;0.00;;;24.30;34.70;;;;;;5103906;28;20019;-76
2022/08/18 04:31:28;;;;;;;0.00;0.00;;;24.50;34.60;;;;;;5105023;28;20477;-76
2022/08/18 04:33:55;;;;;;;0.00;0.00;;;24.70;34.10;;;;;;5108089;28;20036;-77
2022/08/18 04:36:21;;;;;;;0.00;0.00;;;24.70;34.00;;;;;;5106862;27;20027;-75
2022/08/18 04:38:48;;;;;;;0.00;0.00;;;24.80;33.70;;;;;;5112073;27;20090;-74
2022/08/18 04:41:14;;;;;;;1.85;0.22;;;24.80;33.80;;;;;;5109156;27;20020;-76
2022/08/18 04:43:41;;;;;;;0.00;0.00;;;24.90;34.10;;;;;;5106507;27;20091;-76
2022/08/18 04:46:08;;;;;;;1.88;0.35;;;24.40;35.00;;;;;;5111627;27;20047;-74
2022/08/18 04:48:37;;;;;;;0.10;0.10;;;24.40;34.60;;;;;;5115876;27;20055;-75
2022/08/18 04:51:10;;;;;;;0.22;0.22;;;24.60;34.30;;;;;;5113823;27;20118;-76
2022/08/18 04:53:46;;;;;;;0.00;0.00;;;24.80;34.00;;;;;;5122232;27;20034;-75
2022/08/18 04:56:26;;;;;;;0.52;0.52;;;25.10;33.60;;;;;;5109382;27;20139;-75
2022/08/18 04:58:57;;;;;;;0.00;0.00;;;24.90;33.30;;;;;;5110969;27;20063;-76
2022/08/18 05:01:26;;;;;;;0.20;0.20;;;25.00;33.30;;;;;;5108137;27;20039;-76
2022/08/18 05:03:55;;;;;;;0.10;0.10;;;24.80;33.60;;;;;;5114040;27;20027;-74
2022/08/18 05:06:26;;;;;;;0.20;0.10;;;24.90;33.60;;;;;;5106453;27;20028;-76
2022/08/18 05:08:57;;;;;;;0.00;0.00;;;24.90;34.00;;;;;;5091420;27;20447;-75
2022/08/18 05:11:27;;;;;;;0.38;0.38;;;25.10;33.90;;;;;;5110235;27;20115;-76
2022/08/18 05:13:56;;;;;;;0.00;0.00;;;25.10;33.50;;;;;;5112773;27;20024;-75
2022/08/18 05:16:23;;;;;;;0.22;0.08;;;25.10;34.30;;;;;;5108783;27;20074;-76
2022/08/18 05:18:52;;;;;;;0.20;0.20;;;25.10;34.10;;;;;;5111528;27;20026;-76
2022/08/18 05:21:19;;;;;;;0.22;0.22;;;25.20;33.60;;;;;;5091171;28;20030;-75
2022/08/18 05:23:47;;;;;;;0.00;0.00;;;25.10;33.40;;;;;;5119441;27;20032;-75
2022/08/18 05:26:15;;;;;;;0.30;0.10;;;25.20;33.40;;;;;;5107749;27;20031;-74
2022/08/18 05:28:42;;;;;;;0.00;0.00;;;25.00;34.00;;;;;;5110128;27;20024;-76
2022/08/18 05:31:13;;;;;;;0.00;0.00;;;24.90;34.80;;;;;;5094446;28;20023;-76
2022/08/18 05:33:40;;;;;;;0.95;0.93;;;24.90;34.30;;;;;;5106127;27;20336;-75
2022/08/18 05:36:42;;;;;;;0.00;0.00;;;25.00;34.90;;;;;;5107775;27;20077;-75
2022/08/18 05:39:16;;;;;;;0.10;0.10;;;25.10;34.60;;;;;;5115348;27;20490;-76
2022/08/18 05:42:07;;;;;;;0.00;0.00;;;25.20;34.90;;;;;;5102570;28;20028;-76
2022/08/18 05:44:39;;;;;;;0.47;0.15;;;25.30;34.80;;;;;;5104227;27;20019;-76
2022/08/18 05:47:28;;;;;;;0.00;0.00;;;25.30;35.00;;;;;;5104618;27;20026;-76
2022/08/18 05:49:56;;;;;;;0.00;0.00;;;25.30;35.10;;;;;;5105063;27;20479;-75
2022/08/18 05:52:50;;;;;;;0.00;0.00;;;25.30;34.60;;;;;;5103554;27;20483;-74
2022/08/18 05:58:30;;;;;;;0.00;0.00;;;25.60;34.40;;;;;;5107363;27;20060;-75
2022/08/18 06:01:09;;;;;;;0.00;0.00;;;25.80;33.90;;;;;;5103930;27;20020;-74
2022/08/18 06:03:42;;;;;;;0.00;0.00;;;25.40;35.80;;;;;;5109519;27;20028;-76
2022/08/18 06:06:13;;;;;;;0.90;0.90;;;25.40;36.80;;;;;;5105107;27;20460;-75
2022/08/18 06:08:47;;;;;;;0.00;0.00;;;25.20;37.80;;;;;;5104427;27;20407;-77
2022/08/18 06:11:13;;;;;;;0.05;0.05;;;25.30;36.90;;;;;;5108061;27;20027;-75
2022/08/18 06:13:41;;;;;;;0.35;0.17;;;25.40;36.80;;;;;;5106737;27;20031;-74
2022/08/18 06:16:49;;;;;;;0.77;0.05;;;25.40;36.70;;;;;;5105829;27;20375;-75
2022/08/18 06:19:32;;;;;;;0.03;0.00;;;25.40;37.20;;;;;;5081359;27;20042;-75
2022/08/18 06:21:58;;;;;;;0.10;0.10;;;25.20;37.20;;;;;;5084989;28;20032;-74
2022/08/18 06:24:58;;;;;;;0.00;0.00;;;25.40;38.10;;;;;;5103053;27;20029;-76
2022/08/18 06:27:39;;;;;;;0.30;0.30;;;25.50;38.50;;;;;;5104828;27;20031;-76
2022/08/18 06:30:18;;;;;;;0.00;0.00;;;25.60;36.50;;;;;;5109258;27;20024;-75
2022/08/18 06:33:09;;;;;;;0.00;0.00;;;25.60;37.00;;;;;;5103600;27;20491;-74
2022/08/18 06:35:47;;;;;;;0.00;0.00;;;25.70;36.70;;;;;;5103601;28;20380;-75
2022/08/18 06:38:41;;;;;;;0.03;0.00;;;25.70;35.80;;;;;;5107381;27;20106;-74
2022/08/18 06:41:17;;;;;;;0.55;0.32;;;25.80;35.90;;;;;;5104359;27;20032;-77
2022/08/18 06:43:57;;;;;;;3.03;1.55;;;25.90;35.80;;;;;;5108087;27;20506;-74
2022/08/18 06:46:50;;;;;;;0.10;0.10;;;25.80;36.10;;;;;;5108055;27;20027;-76
2022/08/18 06:49:42;;;;;;;0.00;0.00;;;25.70;37.10;;;;;;5082647;27;20130;-74
2022/08/18 06:52:32;;;;;;;1.10;0.55;;;25.60;36.70;;;;;;5107560;28;20041;-76
2022/08/18 06:55:10;;;;;;;0.15;0.10;;;25.40;36.40;;;;;;5105099;28;20058;-76
2022/08/18 06:57:51;;;;;;;0.00;0.00;;;25.40;36.10;;;;;;5111014;28;20043;-76
2022/08/18 07:00:17;;;;;;;3.00;2.90;;;25.50;36.90;;;;;;5105537;28;20031;-76
2022/08/18 07:02:53;;;;;;;0.30;0.30;;;25.60;37.00;;;;;;5102415;28;20023;-75
2022/08/18 07:05:31;;;;;;;0.00;0.00;;;25.60;35.40;;;;;;5108292;28;20122;-74
2022/08/18 07:08:06;;;;;;;0.00;0.00;;;25.60;35.40;;;;;;5109827;28;20410;-75
2022/08/18 07:10:40;;;;;;;0.00;0.00;;;25.80;34.20;;;;;;5106762;28;20160;-75
2022/08/18 07:13:24;;;;;;;0.00;0.00;;;26.00;33.40;;;;;;5113733;28;20031;-75
2022/08/18 07:15:51;;;;;;;0.00;0.00;;;26.30;33.10;;;;;;5107903;28;20438;-75
2022/08/18 07:18:25;;;;;;;9.85;0.20;;;26.50;32.80;;;;;;5110102;28;20038;-76
2022/08/18 07:21:00;;;;;;;0.00;0.00;;;26.40;32.90;;;;;;5109772;28;20524;-76
2022/08/18 07:23:33;;;;;;;0.00;0.00;;;26.40;33.50;;;;;;5105740;28;20077;-76
2022/08/18 07:26:03;;;;;;;0.00;0.00;;;26.60;33.80;;;;;;5110671;28;20495;-76
2022/08/18 07:28:35;;;;;;;0.47;0.47;;;26.60;33.80;;;;;;5108632;28;20032;-76
2022/08/18 07:31:30;;;;;;;0.20;0.20;;;26.80;33.30;;;;;;5108136;28;20130;-74
2022/08/18 07:34:14;;;;;;;0.17;0.15;;;26.80;34.00;;;;;;5105805;28;20049;-76
2022/08/18 07:37:11;;;;;;;0.00;0.00;;;26.60;32.30;;;;;;5110213;27;20066;-75
2022/08/18 07:39:53;;;;;;;0.40;0.00;;;26.90;33.60;;;;;;5108902;27;20043;-74
2022/08/18 07:42:55;;;;;;;0.00;0.00;;;26.70;34.00;;;;;;5113365;27;20035;-74
2022/08/18 07:45:45;;;;;;;0.00;0.00;;;26.90;33.60;;;;;;5000494;27;20129;-75
2022/08/18 07:48:32;;;;;;;0.00;0.00;;;26.70;31.80;;;;;;5117581;27;20020;-74
2022/08/18 07:51:23;;;;;;;0.00;0.00;;;26.50;31.30;;;;;;5112552;27;20468;-74
2022/08/18 07:54:13;;;;;;;0.00;0.00;;;26.70;32.30;;;;;;5108904;27;20637;-76
2022/08/18 07:56:50;;;;;;;0.00;0.00;;;26.80;32.30;;;;;;5113248;27;20071;-75
2022/08/18 07:59:29;;;;;;;0.28;0.28;;;26.30;33.10;;;;;;5108342;27;20459;-75
2022/08/18 08:02:15;;;;;;;1.02;0.98;;;26.40;33.60;;;;;;5080997;28;20060;-75
2022/08/18 08:05:06;;;;;;;17.13;3.22;;;26.80;33.40;;;;;;5093001;28;20578;-75
2022/08/18 08:07:52;;;;;;;0.05;0.05;;;27.20;31.60;;;;;;5108943;27;20034;-75
2022/08/18 08:10:22;;;;;;;0.00;0.00;;;27.60;30.90;;;;;;5112171;27;20073;-75
2022/08/18 08:12:52;;;;;;;0.10;0.10;;;27.60;31.00;;;;;;5110616;27;20034;-74
2022/08/18 08:15:27;;;;;;;1.02;1.02;;;27.40;32.10;;;;;;5109954;27;20024;-74
2022/08/18 08:17:56;;;;;;;1.45;0.98;;;27.30;31.80;;;;;;5113297;27;20467;-74
2022/08/18 08:20:27;;;;;;;0.00;0.00;;;27.40;32.60;;;;;;5109927;27;20063;-74
2022/08/18 08:23:08;;;;;;;0.17;0.17;;;27.70;31.80;;;;;;5113212;27;20103;-74
2022/08/18 08:25:55;;;;;;;0.75;0.63;;;28.00;30.20;;;;;;5112596;27;20019;-74
2022/08/18 08:28:39;;;;;;;0.10;0.10;;;28.20;29.20;;;;;;5112369;27;20039;-74
2022/08/18 08:31:21;;;;;;;0.98;0.20;;;28.00;29.10;;;;;;5112418;27;20036;-74
2022/08/18 08:33:52;;;;;;;0.00;0.00;;;27.90;29.50;;;;;;5109315;27;20043;-74
2022/08/18 08:36:32;;;;;;;0.10;0.00;;;27.40;30.00;;;;;;5109656;27;20031;-74
2022/08/18 08:39:08;;;;;;;21.92;3.10;;;27.60;29.90;;;;;;5110457;27;20397;-74
2022/08/18 08:41:55;;;;;;;0.00;0.00;;;27.50;28.80;;;;;;5093498;28;20032;-74
2022/08/18 08:44:29;;;;;;;0.00;0.00;;;27.60;28.50;;;;;;5111233;27;20019;-76
2022/08/18 08:47:09;;;;;;;0.32;0.20;;;27.80;28.70;;;;;;5110959;27;20027;-75
2022/08/18 08:49:44;;;;;;;0.20;0.20;;;28.00;30.50;;;;;;5112265;27;20067;-74
2022/08/18 08:52:16;;;;;;;0.00;0.00;;;27.80;31.80;;;;;;5108395;27;20562;-74
2022/08/18 08:54:54;;;;;;;0.75;0.75;;;28.10;30.90;;;;;;5106515;27;20065;-75
2022/08/18 08:57:27;;;;;;;0.00;0.00;;;28.00;30.40;;;;;;5110142;27;20098;-75
2022/08/18 08:59:57;;;;;;;0.10;0.10;;;28.00;30.90;;;;;;5108797;27;20019;-76
2022/08/18 09:02:42;;;;;;;0.00;0.00;;;28.20;30.50;;;;;;5105249;27;20031;-75
2022/08/18 09:05:14;;;;;;;0.00;0.00;;;28.50;30.90;;;;;;5109996;27;20051;-76
2022/08/18 09:08:05;;;;;;;0.00;0.00;;;28.30;30.70;;;;;;5108752;27;20097;-75
2022/08/18 09:10:40;;;;;;;0.05;0.05;;;28.60;31.50;;;;;;5111383;27;20031;-74
2022/08/18 09:13:26;;;;;;;0.00;0.00;;;28.60;31.30;;;;;;5111980;27;20028;-74
2022/08/18 09:16:14;;;;;;;0.00;0.00;;;28.80;30.90;;;;;;5111482;27;20070;-75
2022/08/18 09:19:05;;;;;;;0.00;0.00;;;28.70;30.00;;;;;;5105275;27;20028;-75
2022/08/18 09:21:34;;;;;;;0.10;0.10;;;28.50;30.00;;;;;;5111312;27;20054;-75
2022/08/18 09:24:18;;;;;;;0.20;0.20;;;28.80;29.60;;;;;;5110524;27;20102;-76
2022/08/18 09:27:03;;;;;;;2.50;0.32;;;28.50;30.00;;;;;;5110017;27;20116;-74
2022/08/18 09:29:53;;;;;;;0.85;0.60;;;28.30;29.20;;;;;;5110956;27;20650;-74
2022/08/18 09:32:20;;;;;;;0.10;0.10;;;28.20;30.10;;;;;;5111841;27;20488;-74
2022/08/18 09:35:06;;;;;;;0.00;0.00;;;28.00;29.90;;;;;;5107181;27;20039;-74
2022/08/18 09:37:44;;;;;;;0.25;0.10;;;27.90;30.00;;;;;;5090742;27;20047;-75
2022/08/18 09:43:16;;;;;;;0.00;0.00;;;28.00;30.40;;;;;;5108520;28;20026;-74
2022/08/18 09:45:54;;;;;;;0.85;0.52;;;28.00;30.50;;;;;;5107184;27;20269;-75
2022/08/18 09:48:24;;;;;;;0.00;0.00;;;27.80;30.30;;;;;;5110124;27;20063;-75
2022/08/18 09:50:57;;;;;;;0.47;0.47;;;27.80;30.70;;;;;;5107219;27;20023;-75
2022/08/18 09:53:47;;;;;;;0.20;0.20;;;27.80;31.40;;;;;;5104582;27;20024;-75
2022/08/18 09:56:16;;;;;;;0.38;0.38;;;28.00;31.30;;;;;;5110515;27;20449;-75
2022/08/18 09:59:03;;;;;;;0.00;0.00;;;28.20;30.90;;;;;;5091292;28;20035;-75
2022/08/18 10:01:30;;;;;;;0.00;0.00;;;27.80;30.20;;;;;;5111152;27;20020;-75
2022/08/18 10:04:15;;;;;;;0.00;0.00;;;27.80;30.30;;;;;;5113853;27;20436;-76
2022/08/18 10:06:45;;;;;;;0.00;0.00;;;27.80;31.50;;;;;;5106906;27;20521;-75
2022/08/18 10:09:30;;;;;;;0.00;0.00;;;27.90;32.00;;;;;;5110910;27;20024;-75
2022/08/18 10:12:05;;;;;;;0.10;0.10;;;27.90;31.30;;;;;;5109602;28;20020;-75
2022/08/18 10:14:53;;;;;;;0.00;0.00;;;28.10;32.10;;;;;;5110862;27;20019;-75
2022/08/18 10:17:59;;;;;;;0.00;0.00;;;28.20;31.40;;;;;;5106929;27;20024;-75
2022/08/18 10:20:28;;;;;;;0.00;0.00;;;28.20;32.10;;;;;;5106942;27;20038;-73
2022/08/18 10:22:55;;;;;;;11.10;2.53;;;28.00;30.90;;;;;;5105564;28;20412;-74
2022/08/18 10:25:41;;;;;;;0.00;0.00;;;27.80;31.10;;;;;;5108898;27;20635;-75
2022/08/18 10:28:29;;;;;;;0.00;0.00;;;27.70;30.90;;;;;;5110316;27;20035;-74
2022/08/18 10:31:05;;;;;;;0.00;0.00;;;27.70;31.20;;;;;;5108788;27;20043;-74
2022/08/18 10:34:04;;;;;;;0.00;0.00;;;27.80;31.10;;;;;;5107960;27;20038;-74
2022/08/18 10:36:52;;;;;;;3.13;3.03;;;28.00;30.40;;;;;;5109370;28;20072;-74
2022/08/18 10:39:26;;;;;;;0.00;0.00;;;27.90;30.30;;;;;;5111319;27;20024;-75
2022/08/18 10:42:01;;;;;;;0.63;0.32;;;27.90;29.90;;;;;;5109623;27;21833;-75
2022/08/18 10:44:35;;;;;;;0.00;0.00;;;28.00;29.40;;;;;;5107493;27;20419;-74
2022/08/18 10:47:02;;;;;;;0.10;0.10;;;28.00;29.30;;;;;;5109825;27;20030;-74
2022/08/18 10:49:31;;;;;;;0.00;0.00;;;27.90;29.40;;;;;;5105294;28;20435;-74
2022/08/18 10:52:26;;;;;;;0.00;0.00;;;27.80;29.20;;;;;;5102092;27;20026;-74
2022/08/18 10:55:05;;;;;;;0.00;0.00;;;27.80;30.00;;;;;;5106743;28;20039;-74
2022/08/18 10:57:31;;;;;;;0.00;0.00;;;27.90;31.10;;;;;;5107109;28;20040;-74
2022/08/18 11:00:16;;;;;;;0.40;0.40;;;27.90;31.40;;;;;;5104866;28;20024;-74
2022/08/18 11:03:09;;;;;;;0.00;0.00;;;28.00;31.40;;;;;;5105915;27;20047;-74
2022/08/18 11:05:36;;;;;;;0.28;0.28;;;27.90;31.40;;;;;;5103128;28;20344;-75
2022/08/18 11:08:11;;;;;;;0.20;0.20;;;27.90;31.50;;;;;;5104806;28;20479;-75
2022/08/18 11:10:47;;;;;;;0.00;0.00;;;27.60;32.10;;;;;;5111213;28;20463;-74
2022/08/18 11:13:38;;;;;;;0.00;0.00;;;27.50;31.90;;;;;;5110588;28;20027;-73
2022/08/18 11:16:40;;;;;;;3.65;0.35;;;27.60;31.70;;;;;;5107253;28;20020;-76
2022/08/18 11:19:10;;;;;;;0.00;0.00;;;27.50;31.00;;;;;;5078170;28;20119;-74
2022/08/18 11:21:36;;;;;;;1.08;0.68;;;27.40;30.50;;;;;;5110751;28;20044;-74
2022/08/18 11:24:11;;;;;;;0.00;0.00;;;27.30;30.80;;;;;;5104640;28;20035;-76
2022/08/18 11:26:47;;;;;;;0.00;0.00;;;27.50;31.50;;;;;;5107750;28;20040;-75
2022/08/18 11:29:25;;;;;;;0.00;0.00;;;27.40;31.90;;;;;;5111798;28;20042;-73
2022/08/18 11:32:02;;;;;;;0.00;0.00;;;27.50;31.60;;;;;;5105991;28;20028;-73
2022/08/18 11:34:36;;;;;;;0.00;0.00;;;27.60;30.80;;;;;;5105293;28;20398;-74
2022/08/18 11:37:08;;;;;;;0.25;0.20;;;27.60;30.30;;;;;;5105703;28;20023;-75
2022/08/18 11:39:47;;;;;;;0.00;0.00;;;27.70;30.70;;;;;;5108141;28;20458;-75
2022/08/18 11:42:16;;;;;;;0.10;0.10;;;27.50;31.10;;;;;;5110761;28;20348;-75
2022/08/18 11:44:45;;;;;;;0.00;0.00;;;27.60;30.00;;;;;;5109580;28;20016;-75
2022/08/18 11:47:19;;;;;;;0.00;0.00;;;27.60;30.40;;;;;;5109556;28;20023;-75
2022/08/18 11:50:08;;;;;;;0.00;0.00;;;27.40;30.20;;;;;;5111872;28;20034;-74
2022/08/18 11:52:48;;;;;;;0.00;0.00;;;27.40;30.90;;;;;;5106335;28;20165;-75
2022/08/18 11:55:33;;;;;;;0.13;0.10;;;27.40;31.10;;;;;;5102112;28;20039;-75
2022/08/18 11:57:59;;;;;;;0.00;0.00;;;27.20;31.00;;;;;;5104941;28;20505;-75
2022/08/18 12:00:43;;;;;;;0.10;0.10;;;27.30;30.80;;;;;;5109910;28;20027;-76
2022/08/18 12:03:22;;;;;;;0.00;0.00;;;27.30;30.10;;;;;;5109638;28;20069;-75
2022/08/18 12:05:55;;;;;;;0.00;0.00;;;27.30;29.80;;;;;;5110588;28;20028;-75
2022/08/18 12:08:36;;;;;;;0.00;0.00;;;27.40;29.40;;;;;;5118137;28;20020;-76
2022/08/18 12:11:25;;;;;;;0.00;0.00;;;27.30;29.20;;;;;;5103720;28;20375;-74
2022/08/18 12:14:06;;;;;;;0.00;0.00;;;27.20;29.10;;;;;;5101141;28;20490;-75
2022/08/18 12:16:34;;;;;;;0.00;0.00;;;27.20;29.30;;;;;;5108764;28;20050;-75
2022/08/18 12:19:01;;;;;;;0.00;0.00;;;27.10;29.30;;;;;;5110721;28;20028;-75
2022/08/18 12:21:27;;;;;;;0.00;0.00;;;27.10;29.30;;;;;;5115227;27;20019;-75
2022/08/18 12:23:53;;;;;;;0.00;0.00;;;27.00;29.50;;;;;;5110557;27;20023;-75
2022/08/18 12:26:19;;;;;;;0.00;0.00;;;27.00;29.20;;;;;;5110146;28;20024;-75
2022/08/18 12:28:46;;;;;;;0.00;0.00;;;26.90;29.30;;;;;;5114154;27;20399;-75
2022/08/18 12:31:14;;;;;;;0.00;0.00;;;26.90;29.80;;;;;;5113080;27;20034;-75
2022/08/18 12:33:41;;;;;;;0.00;0.00;;;27.00;30.00;;;;;;5108097;27;20034;-75
2022/08/18 12:36:08;;;;;;;0.00;0.00;;;27.00;30.00;;;;;;5110253;27;20039;-75
2022/08/18 12:38:34;;;;;;;0.00;0.00;;;27.00;29.80;;;;;;5105237;27;20103;-75
2022/08/18 12:41:00;;;;;;;0.00;0.00;;;27.10;29.80;;;;;;5108138;27;20034;-75
2022/08/18 12:43:26;;;;;;;0.00;0.00;;;27.10;29.70;;;;;;5112232;27;20027;-75
2022/08/18 12:45:52;;;;;;;0.00;0.00;;;27.10;29.60;;;;;;5117300;27;20112;-75
2022/08/18 12:48:18;;;;;;;0.00;0.00;;;27.10;29.60;;;;;;5112103;27;20375;-74
2022/08/18 12:50:45;;;;;;;0.00;0.00;;;27.00;30.20;;;;;;5107427;27;20691;-75
2022/08/18 12:53:13;;;;;;;0.00;0.00;;;27.00;29.80;;;;;;5110351;27;20459;-74
2022/08/18 12:55:43;;;;;;;0.00;0.00;;;27.10;29.60;;;;;;5115512;27;20027;-74
2022/08/18 12:58:10;;;;;;;0.00;0.00;;;27.00;29.90;;;;;;5112997;27;20027;-75
2022/08/18 13:00:39;;;;;;;0.00;0.00;;;26.90;30.40;;;;;;5103165;28;20380;-75
2022/08/18 13:03:06;;;;;;;0.00;0.00;;;26.70;31.10;;;;;;5108814;27;20031;-73
2022/08/18 13:05:34;;;;;;;0.00;0.00;;;26.70;31.80;;;;;;5111339;27;20072;-73
2022/08/18 13:08:03;;;;;;;0.00;0.00;;;26.70;31.60;;;;;;5115154;27;20471;-74
2022/08/18 13:10:29;;;;;;;0.00;0.00;;;26.70;31.50;;;;;;5113463;27;20051;-73
2022/08/18 13:12:55;;;;;;;0.00;0.00;;;26.70;31.60;;;;;;5109418;27;20035;-76
2022/08/18 13:15:23;;;;;;;0.00;0.00;;;26.80;31.70;;;;;;5107125;28;20020;-75
2022/08/18 13:17:49;;;;;;;0.00;0.00;;;26.80;31.90;;;;;;5114069;28;20047;-75
2022/08/18 13:20:17;;;;;;;0.00;0.00;;;26.80;31.70;;;;;;5115022;28;20016;-75
2022/08/18 13:22:46;;;;;;;0.05;0.05;;;26.70;32.10;;;;;;5119328;27;20024;-75
2022/08/18 13:25:17;;;;;;;0.13;0.13;;;26.80;32.10;;;;;;5112318;27;20028;-73
2022/08/18 13:27:44;;;;;;;0.00;0.00;;;26.70;32.60;;;;;;5108683;27;20369;-76
2022/08/18 13:30:15;;;;;;;0.00;0.00;;;26.60;32.60;;;;;;5109303;28;20131;-74